createdAt,value
2022-08-22T00:01:33.646Z,18.40
2022-08-22T00:02:44.326Z,20.20
2022-08-22T00:02:59.616Z,20.61
2022-08-22T00:03:11.930Z,19.48
2022-08-22T00:04:07.437Z,18.37
2022-08-22T00:06:56.725Z,18.37
2022-08-22T00:09:34.132Z,18.08
2022-08-22T00:12:27.989Z,18.09
2022-08-22T00:15:01.024Z,18.14
2022-08-22T00:17:44.116Z,18.25
2022-08-22T00:20:52.066Z,18.01
2022-08-22T00:23:33.774Z,18.07
2022-08-22T00:26:23.285Z,18.08
2022-08-22T00:29:10.954Z,18.02
2022-08-22T00:31:50.505Z,17.89
2022-08-22T00:34:33.344Z,18.01
2022-08-22T00:37:14.603Z,18.03
2022-08-22T00:39:50.238Z,18.09
2022-08-22T00:42:36.659Z,18.06
2022-08-22T00:45:25.708Z,18.11
2022-08-22T00:48:41.338Z,17.91
2022-08-22T00:51:41.151Z,17.76
2022-08-22T00:54:32.617Z,17.68
2022-08-22T00:57:06.816Z,17.57
2022-08-22T00:59:41.642Z,17.55
2022-08-22T01:02:40.828Z,17.37
2022-08-22T01:05:28.425Z,17.44
2022-08-22T01:08:13.236Z,17.26
2022-08-22T01:11:11.078Z,17.21
2022-08-22T01:14:34.853Z,17.27
2022-08-22T01:17:38.360Z,17.23
2022-08-22T01:20:35.119Z,17.47
2022-08-22T01:23:19.269Z,17.43
2022-08-22T01:26:06.594Z,17.44
2022-08-22T01:29:28.470Z,17.35
2022-08-22T01:31:57.537Z,17.11
2022-08-22T01:34:51.170Z,16.97
2022-08-22T01:37:44.889Z,17.06
2022-08-22T01:40:23.046Z,17.15
2022-08-22T01:42:56.635Z,16.99
2022-08-22T01:45:55.849Z,17.02
2022-08-22T01:48:31.295Z,16.92
2022-08-22T01:51:19.205Z,17.00
2022-08-22T01:54:13.948Z,16.86
2022-08-22T01:56:44.014Z,16.90
2022-08-22T01:59:17.619Z,16.84
2022-08-22T02:02:21.869Z,17.09
2022-08-22T02:05:12.343Z,17.13
2022-08-22T02:08:04.840Z,17.11
2022-08-22T02:11:11.082Z,17.20
2022-08-22T02:13:56.317Z,17.25
2022-08-22T02:16:35.879Z,17.07
2022-08-22T02:19:20.253Z,17.05
2022-08-22T02:21:51.253Z,17.09
2022-08-22T02:24:32.073Z,17.17
2022-08-22T02:27:06.568Z,17.07
2022-08-22T02:29:45.765Z,17.11
2022-08-22T02:32:25.931Z,17.11
2022-08-22T02:35:04.245Z,17.04
2022-08-22T02:37:57.179Z,16.87
2022-08-22T02:40:49.635Z,16.85
2022-08-22T02:43:52.694Z,16.76
2022-08-22T02:46:29.614Z,16.58
2022-08-22T02:49:27.618Z,16.62
2022-08-22T02:52:16.505Z,16.83
2022-08-22T02:54:51.469Z,16.92
2022-08-22T02:57:31.375Z,16.99
2022-08-22T03:00:31.918Z,16.74
2022-08-22T03:02:58.643Z,16.88
2022-08-22T03:05:47.660Z,16.87
2022-08-22T03:08:16.454Z,17.03
2022-08-22T03:10:48.419Z,16.94
2022-08-22T03:13:46.723Z,16.89
2022-08-22T03:16:29.509Z,16.78
2022-08-22T03:19:22.991Z,16.75
2022-08-22T03:21:55.163Z,16.70
2022-08-22T03:24:33.345Z,16.57
2022-08-22T03:27:10.124Z,16.77
2022-08-22T03:29:41.195Z,16.57
2022-08-22T03:32:06.917Z,16.61
2022-08-22T03:34:33.390Z,16.65
2022-08-22T03:37:14.550Z,16.66
2022-08-22T03:39:56.927Z,16.60
2022-08-22T03:42:38.017Z,16.48
2022-08-22T03:45:47.620Z,16.49
2022-08-22T03:48:13.362Z,16.46
2022-08-22T03:51:03.712Z,16.33
2022-08-22T03:53:53.643Z,16.35
2022-08-22T03:56:40.966Z,16.28
2022-08-22T03:59:31.355Z,16.34
2022-08-22T04:02:24.728Z,16.33
2022-08-22T04:05:14.929Z,16.43
2022-08-22T04:07:52.747Z,16.39
2022-08-22T04:10:43.431Z,16.46
2022-08-22T04:13:39.865Z,16.39
2022-08-22T04:16:33.863Z,16.11
2022-08-22T04:19:12.622Z,16.18
2022-08-22T04:21:48.499Z,16.28
2022-08-22T04:24:26.593Z,16.23
2022-08-22T04:26:55.954Z,16.18
2022-08-22T04:29:30.628Z,16.32
2022-08-22T04:32:07.102Z,16.35
2022-08-22T04:35:12.729Z,16.26
2022-08-22T04:37:49.903Z,16.24
2022-08-22T04:40:33.677Z,16.38
2022-08-22T04:43:40.718Z,16.27
2022-08-22T04:46:40.918Z,16.38
2022-08-22T04:49:15.017Z,16.33
2022-08-22T04:52:13.089Z,16.47
2022-08-22T04:55:01.323Z,16.54
2022-08-22T04:57:33.274Z,16.58
2022-08-22T05:00:08.349Z,16.59
2022-08-22T05:02:38.153Z,16.71
2022-08-22T05:05:14.343Z,16.74
2022-08-22T05:07:45.287Z,16.87
2022-08-22T05:10:25.101Z,16.84
2022-08-22T05:12:57.032Z,16.85
2022-08-22T05:15:32.514Z,16.91
2022-08-22T05:18:06.148Z,16.94
2022-08-22T05:20:33.778Z,16.91
2022-08-22T05:23:16.919Z,17.01
2022-08-22T05:25:48.114Z,17.12
2022-08-22T05:28:35.393Z,16.88
2022-08-22T05:31:13.559Z,17.00
2022-08-22T05:33:47.286Z,17.13
2022-08-22T05:36:20.032Z,17.22
2022-08-22T05:39:00.091Z,17.18
2022-08-22T05:41:31.139Z,17.31
2022-08-22T05:43:57.523Z,17.35
2022-08-22T05:46:40.502Z,17.45
2022-08-22T05:49:21.884Z,17.43
2022-08-22T05:52:02.130Z,17.46
2022-08-22T05:54:34.235Z,17.62
2022-08-22T05:57:30.683Z,17.75
2022-08-22T06:00:14.370Z,17.74
2022-08-22T06:03:12.634Z,17.86
2022-08-22T06:05:43.028Z,17.92
2022-08-22T06:08:32.745Z,18.12
2022-08-22T06:11:06.722Z,18.08
2022-08-22T06:13:41.533Z,18.21
2022-08-22T06:16:17.990Z,18.25
2022-08-22T06:18:45.191Z,18.29
2022-08-22T06:21:19.923Z,18.35
2022-08-22T06:23:59.247Z,18.39
2022-08-22T06:26:30.769Z,18.46
2022-08-22T06:29:00.048Z,18.63
2022-08-22T06:31:31.685Z,18.54
2022-08-22T06:34:08.440Z,18.58
2022-08-22T06:36:37.962Z,18.66
2022-08-22T06:39:12.832Z,18.79
2022-08-22T06:41:46.709Z,18.79
2022-08-22T06:44:17.384Z,18.72
2022-08-22T06:46:47.019Z,18.95
2022-08-22T06:49:14.162Z,19.09
2022-08-22T06:51:40.901Z,19.09
2022-08-22T06:54:17.106Z,19.27
2022-08-22T06:56:46.268Z,19.29
2022-08-22T06:59:16.582Z,19.46
2022-08-22T07:01:56.231Z,19.55
2022-08-22T07:04:27.223Z,19.74
2022-08-22T07:06:55.147Z,19.83
2022-08-22T07:09:23.699Z,19.92
2022-08-22T07:11:51.487Z,19.97
2022-08-22T07:14:26.542Z,20.02
2022-08-22T07:16:59.189Z,20.16
2022-08-22T07:19:29.054Z,20.10
2022-08-22T07:21:56.511Z,20.20
2022-08-22T07:24:27.512Z,20.21
2022-08-22T07:27:21.906Z,20.13
2022-08-22T07:30:09.965Z,20.26
2022-08-22T07:32:51.363Z,20.30
2022-08-22T07:35:22.676Z,20.28
2022-08-22T07:38:34.092Z,20.31
2022-08-22T07:41:05.658Z,20.44
2022-08-22T07:43:38.881Z,20.48
2022-08-22T07:46:15.613Z,20.61
2022-08-22T07:49:08.211Z,20.74
2022-08-22T07:51:42.756Z,21.00
2022-08-22T07:54:12.636Z,21.12
2022-08-22T07:56:58.923Z,21.39
2022-08-22T07:59:27.510Z,21.64
2022-08-22T08:01:58.054Z,21.85
2022-08-22T08:04:30.007Z,21.85
2022-08-22T08:06:59.776Z,21.97
2022-08-22T08:09:33.592Z,22.05
2022-08-22T08:12:03.297Z,22.19
2022-08-22T08:14:30.172Z,22.24
2022-08-22T08:17:13.882Z,22.12
2022-08-22T08:19:42.506Z,21.89
2022-08-22T08:22:16.380Z,21.78
2022-08-22T08:24:44.878Z,21.75
2022-08-22T08:27:35.582Z,21.81
2022-08-22T08:30:12.235Z,22.00
2022-08-22T08:32:42.873Z,22.05
2022-08-22T08:35:25.557Z,22.10
2022-08-22T08:38:08.839Z,22.13
2022-08-22T08:40:57.572Z,22.30
2022-08-22T08:43:37.408Z,22.43
2022-08-22T08:46:13.564Z,22.48
2022-08-22T08:49:13.399Z,22.54
2022-08-22T08:51:54.695Z,22.69
2022-08-22T08:54:20.957Z,22.72
2022-08-22T08:56:55.196Z,22.46
2022-08-22T08:59:30.824Z,22.57
2022-08-22T09:02:20.426Z,22.86
2022-08-22T09:05:07.596Z,22.75
2022-08-22T09:07:39.221Z,22.83
2022-08-22T09:10:29.332Z,23.03
2022-08-22T09:13:34.502Z,23.18
2022-08-22T09:16:26.752Z,23.13
2022-08-22T09:18:58.642Z,23.14
2022-08-22T09:22:02.089Z,23.11
2022-08-22T09:25:00.924Z,22.88
2022-08-22T09:27:37.273Z,22.99
2022-08-22T09:30:12.133Z,22.81
2022-08-22T09:32:41.519Z,22.50
2022-08-22T09:35:22.380Z,22.44
2022-08-22T09:38:19.073Z,22.64
2022-08-22T09:40:45.450Z,22.96
2022-08-22T09:43:21.179Z,23.10
2022-08-22T09:46:02.121Z,23.14
2022-08-22T09:48:59.450Z,22.98
2022-08-22T09:52:15.279Z,23.26
2022-08-22T09:55:08.814Z,23.18
2022-08-22T09:57:53.767Z,23.26
2022-08-22T10:00:34.361Z,23.51
2022-08-22T10:03:19.149Z,23.50
2022-08-22T10:05:56.093Z,23.60
2022-08-22T10:08:32.950Z,23.65
2022-08-22T10:11:09.079Z,23.90
2022-08-22T10:13:57.326Z,24.30
2022-08-22T10:16:37.959Z,24.60
2022-08-22T10:19:27.263Z,24.79
2022-08-22T10:22:29.994Z,24.75
2022-08-22T10:24:59.743Z,25.01
2022-08-22T10:27:51.447Z,25.50
2022-08-22T10:30:49.792Z,25.83
2022-08-22T10:33:23.067Z,26.44
2022-08-22T10:36:00.168Z,26.27
2022-08-22T10:38:44.067Z,25.89
2022-08-22T10:41:38.828Z,25.45
2022-08-22T10:44:17.266Z,25.42
2022-08-22T10:46:56.313Z,25.62
2022-08-22T10:49:39.978Z,25.85
2022-08-22T10:52:19.524Z,25.87
2022-08-22T10:55:09.724Z,25.36
2022-08-22T10:57:57.976Z,26.02
2022-08-22T11:00:46.023Z,26.41
2022-08-22T11:03:47.399Z,26.59
2022-08-22T11:06:25.526Z,26.62
2022-08-22T11:09:30.342Z,26.70
2022-08-22T11:12:18.417Z,26.66
2022-08-22T11:14:56.415Z,27.07
2022-08-22T11:17:59.600Z,27.47
2022-08-22T11:20:29.310Z,27.74
2022-08-22T11:23:27.217Z,26.67
2022-08-22T11:26:29.888Z,26.70
2022-08-22T11:29:29.467Z,27.36
2022-08-22T11:32:05.676Z,28.14
2022-08-22T11:34:56.616Z,28.08
2022-08-22T11:37:56.292Z,28.33
2022-08-22T11:40:34.411Z,28.61
2022-08-22T11:43:02.901Z,29.00
2022-08-22T11:45:37.370Z,29.22
2022-08-22T11:48:26.848Z,28.68
2022-08-22T11:51:13.755Z,28.05
2022-08-22T11:54:08.655Z,28.46
2022-08-22T11:56:40.165Z,27.67
2022-08-22T11:59:27.040Z,27.18
2022-08-22T12:02:04.250Z,27.32
2022-08-22T12:04:43.998Z,26.88
2022-08-22T12:07:30.324Z,26.84
2022-08-22T12:10:13.741Z,27.02
2022-08-22T12:13:02.581Z,26.65
2022-08-22T12:15:39.443Z,26.58
2022-08-22T12:18:09.474Z,26.85
2022-08-22T12:21:16.773Z,27.02
2022-08-22T12:24:21.589Z,27.25
2022-08-22T12:27:18.309Z,27.44
2022-08-22T12:30:13.979Z,26.79
2022-08-22T12:33:04.862Z,26.99
2022-08-22T12:35:56.456Z,27.30
2022-08-22T12:38:38.135Z,27.26
2022-08-22T12:41:35.538Z,26.61
2022-08-22T12:44:28.788Z,26.36
2022-08-22T12:47:05.767Z,26.38
2022-08-22T12:49:42.580Z,26.37
2022-08-22T12:52:33.492Z,25.67
2022-08-22T12:55:43.608Z,25.61
2022-08-22T12:58:33.488Z,25.59
2022-08-22T13:01:05.248Z,25.35
2022-08-22T13:03:44.183Z,25.63
2022-08-22T13:06:34.989Z,25.68
2022-08-22T13:09:11.004Z,25.77
2022-08-22T13:11:40.332Z,25.88
2022-08-22T13:14:09.338Z,25.82
2022-08-22T13:16:55.198Z,25.92
2022-08-22T13:19:25.935Z,25.93
2022-08-22T13:22:20.583Z,26.04
2022-08-22T13:24:51.841Z,25.81
2022-08-22T13:27:51.038Z,25.82
2022-08-22T13:30:32.406Z,25.82
2022-08-22T13:33:21.175Z,25.82
2022-08-22T13:35:55.056Z,25.56
2022-08-22T13:38:37.998Z,25.38
2022-08-22T13:41:18.648Z,25.48
2022-08-22T13:44:14.231Z,25.39
2022-08-22T13:47:10.837Z,25.44
2022-08-22T13:49:41.981Z,25.49
2022-08-22T13:52:30.282Z,25.54
2022-08-22T13:55:12.694Z,25.46
2022-08-22T13:57:51.952Z,25.70
2022-08-22T14:00:25.394Z,26.28
2022-08-22T14:03:08.037Z,26.42
2022-08-22T14:05:43.206Z,26.15
2022-08-22T14:08:15.586Z,26.21
2022-08-22T14:10:50.472Z,25.87
2022-08-22T14:13:46.379Z,25.83
2022-08-22T14:16:21.878Z,25.66
2022-08-22T14:18:53.283Z,25.63
2022-08-22T14:21:33.573Z,25.54
2022-08-22T14:24:18.983Z,25.36
2022-08-22T14:26:53.139Z,25.37
2022-08-22T14:29:28.677Z,25.42
2022-08-22T14:32:30.902Z,25.31
2022-08-22T14:35:37.639Z,25.30
2022-08-22T14:38:29.710Z,25.16
2022-08-22T14:41:09.385Z,24.99
2022-08-22T14:43:47.421Z,25.05
2022-08-22T14:46:23.479Z,24.96
2022-08-22T14:48:55.272Z,24.78
2022-08-22T14:51:24.485Z,24.68
2022-08-22T14:53:50.746Z,24.67
2022-08-22T14:56:28.971Z,24.75
2022-08-22T14:59:02.193Z,24.71
2022-08-22T15:01:32.855Z,24.69
2022-08-22T15:04:01.667Z,24.73
2022-08-22T15:06:38.896Z,24.64
2022-08-22T15:09:40.473Z,24.61
2022-08-22T15:12:20.815Z,24.74
2022-08-22T15:14:52.321Z,24.59
2022-08-22T15:17:51.216Z,24.86
2022-08-22T15:20:28.062Z,24.95
2022-08-22T15:22:58.421Z,24.96
2022-08-22T15:25:30.794Z,24.96
2022-08-22T15:28:05.735Z,24.99
2022-08-22T15:30:35.740Z,25.03
2022-08-22T15:33:11.842Z,25.05
2022-08-22T15:35:39.087Z,25.06
2022-08-22T15:38:24.529Z,25.11
2022-08-22T15:40:55.291Z,24.99
2022-08-22T15:43:35.382Z,24.91
2022-08-22T15:46:20.037Z,24.71
2022-08-22T15:49:10.651Z,24.67
2022-08-22T15:51:58.729Z,24.52
2022-08-22T15:54:57.098Z,24.56
2022-08-22T15:57:32.017Z,24.45
2022-08-22T16:00:12.022Z,24.39
2022-08-22T16:02:54.007Z,24.34
2022-08-22T16:05:36.294Z,24.29
2022-08-22T16:08:15.826Z,24.35
2022-08-22T16:10:53.019Z,24.40
2022-08-22T16:13:26.191Z,24.36
2022-08-22T16:16:00.406Z,24.27
2022-08-22T16:18:44.401Z,24.29
2022-08-22T16:21:14.217Z,24.34
2022-08-22T16:23:49.626Z,24.26
2022-08-22T16:26:17.421Z,24.04
2022-08-22T16:28:59.170Z,23.98
2022-08-22T16:31:33.209Z,24.15
2022-08-22T16:34:17.320Z,23.88
2022-08-22T16:36:49.179Z,23.90
2022-08-22T16:39:20.829Z,23.87
2022-08-22T16:41:49.580Z,23.96
2022-08-22T16:44:18.460Z,23.98
2022-08-22T16:46:46.148Z,23.97
2022-08-22T16:49:26.136Z,24.01
2022-08-22T16:52:20.176Z,24.04
2022-08-22T16:54:50.521Z,24.10
2022-08-22T16:57:24.402Z,24.28
2022-08-22T17:00:03.900Z,24.33
2022-08-22T17:02:35.476Z,24.47
2022-08-22T17:05:16.472Z,24.60
2022-08-22T17:08:02.022Z,24.94
2022-08-22T17:11:08.339Z,25.14
2022-08-22T17:13:38.848Z,25.17
2022-08-22T17:16:16.463Z,25.21
2022-08-22T17:19:16.160Z,25.08
2022-08-22T17:21:53.839Z,24.88
2022-08-22T17:24:33.978Z,24.73
2022-08-22T17:27:07.248Z,24.62
2022-08-22T17:29:41.889Z,24.54
2022-08-22T17:32:43.887Z,24.48
2022-08-22T17:35:15.765Z,24.56
2022-08-22T17:38:04.683Z,24.58
2022-08-22T17:40:36.193Z,24.57
2022-08-22T17:43:20.179Z,24.49
2022-08-22T17:46:07.639Z,24.60
2022-08-22T17:49:00.238Z,24.63
2022-08-22T17:51:32.675Z,24.62
2022-08-22T17:54:04.864Z,24.53
2022-08-22T17:56:40.917Z,24.36
2022-08-22T17:59:10.891Z,24.27
2022-08-22T18:01:40.696Z,24.23
2022-08-22T18:04:15.991Z,24.07
2022-08-22T18:07:19.841Z,23.99
2022-08-22T18:09:56.792Z,23.93
2022-08-22T18:13:07.148Z,23.80
2022-08-22T18:15:46.404Z,23.54
2022-08-22T18:18:29.939Z,23.51
2022-08-22T18:21:02.353Z,23.48
2022-08-22T18:23:46.817Z,23.40
2022-08-22T18:26:37.620Z,23.19
2022-08-22T18:29:44.892Z,23.07
2022-08-22T18:32:27.674Z,23.03
2022-08-22T18:35:00.150Z,22.99
2022-08-22T18:37:32.233Z,22.88
2022-08-22T18:40:09.826Z,22.83
2022-08-22T18:42:43.091Z,22.76
2022-08-22T18:45:44.457Z,22.65
2022-08-22T18:48:26.534Z,22.44
2022-08-22T18:51:13.184Z,22.40
2022-08-22T18:53:49.672Z,22.46
2022-08-22T18:56:18.435Z,22.40
2022-08-22T18:59:05.682Z,22.32
2022-08-22T19:01:52.010Z,22.46
2022-08-22T19:04:21.074Z,22.26
2022-08-22T19:07:09.033Z,22.29
2022-08-22T19:10:15.266Z,22.12
2022-08-22T19:13:00.284Z,22.16
2022-08-22T19:15:26.748Z,22.14
2022-08-22T19:18:30.240Z,22.22
2022-08-22T19:21:41.297Z,22.18
2022-08-22T19:24:29.245Z,22.23
2022-08-22T19:27:10.272Z,22.13
2022-08-22T19:29:36.149Z,22.05
2022-08-22T19:32:05.948Z,22.07
2022-08-22T19:34:42.138Z,22.01
2022-08-22T19:37:33.751Z,22.02
2022-08-22T19:40:11.116Z,21.99
2022-08-22T19:42:40.698Z,22.09
2022-08-22T19:45:06.865Z,22.12
2022-08-22T19:47:37.131Z,22.11
2022-08-22T19:50:28.585Z,21.96
2022-08-22T19:52:57.237Z,21.89
2022-08-22T19:55:38.417Z,21.89
2022-08-22T19:58:32.761Z,21.89
2022-08-22T20:01:05.499Z,21.74
2022-08-22T20:04:06.776Z,21.76
2022-08-22T20:06:50.974Z,21.80
2022-08-22T20:09:50.738Z,21.67
2022-08-22T20:12:28.428Z,21.47
2022-08-22T20:14:55.116Z,21.50
2022-08-22T20:17:24.018Z,21.57
2022-08-22T20:23:06.295Z,21.61
2022-08-22T20:25:51.115Z,21.58
2022-08-22T20:28:35.561Z,21.40
2022-08-22T20:31:08.440Z,21.40
2022-08-22T20:33:41.815Z,21.36
2022-08-22T20:36:27.979Z,21.41
2022-08-22T20:39:15.297Z,21.47
2022-08-22T20:41:46.906Z,21.52
2022-08-22T20:44:22.039Z,21.32
2022-08-22T20:46:48.191Z,21.35
2022-08-22T20:49:28.032Z,21.37
2022-08-22T20:52:03.884Z,21.41
2022-08-22T20:54:34.170Z,21.41
2022-08-22T20:57:15.237Z,21.33
2022-08-22T20:59:50.602Z,21.43
2022-08-22T21:02:26.786Z,21.27
2022-08-22T21:05:01.178Z,21.23
2022-08-22T21:07:29.269Z,21.03
2022-08-22T21:10:37.110Z,21.07
2022-08-22T21:13:11.221Z,21.18
2022-08-22T21:15:43.634Z,21.05
2022-08-22T21:18:11.812Z,20.88
2022-08-22T21:20:39.041Z,20.92
2022-08-22T21:23:11.388Z,20.99
2022-08-22T21:26:04.251Z,21.10
2022-08-22T21:28:39.321Z,20.84
2022-08-22T21:31:12.754Z,20.80
2022-08-22T21:33:45.092Z,20.82
2022-08-22T21:36:14.866Z,20.95
2022-08-22T21:38:48.166Z,20.72
2022-08-22T21:41:17.581Z,20.81
2022-08-22T21:43:48.084Z,20.95
2022-08-22T21:46:28.137Z,20.77
2022-08-22T21:49:03.487Z,20.85
2022-08-22T21:51:43.139Z,20.72
2022-08-22T21:54:41.074Z,20.64
2022-08-22T21:57:09.936Z,20.64
2022-08-22T21:59:59.334Z,20.54
2022-08-22T22:02:31.583Z,20.42
2022-08-22T22:05:10.046Z,20.33
2022-08-22T22:07:42.016Z,20.35
2022-08-22T22:10:12.364Z,20.45
2022-08-22T22:12:41.005Z,20.45
2022-08-22T22:15:08.731Z,20.42
2022-08-22T22:17:34.604Z,20.44
2022-08-22T22:20:00.563Z,20.42
2022-08-22T22:22:26.411Z,20.20
2022-08-22T22:24:52.206Z,20.30
2022-08-22T22:27:18.114Z,20.37
2022-08-22T22:29:44.060Z,20.21
2022-08-22T22:32:09.895Z,20.33
2022-08-22T22:34:36.364Z,20.41
2022-08-22T22:37:02.160Z,20.31
2022-08-22T22:39:28.133Z,20.47
2022-08-22T22:41:54.039Z,20.46
2022-08-22T22:44:21.634Z,20.58
2022-08-22T22:46:48.153Z,20.57
2022-08-22T22:49:13.986Z,20.41
2022-08-22T22:51:39.843Z,20.59
2022-08-22T22:54:05.945Z,20.56
2022-08-22T22:56:31.873Z,20.53
2022-08-22T22:59:00.884Z,20.54
2022-08-22T23:01:59.485Z,20.55
2022-08-22T23:04:25.377Z,20.47
2022-08-22T23:06:51.208Z,20.36
2022-08-22T23:09:17.028Z,20.42
2022-08-22T23:11:43.864Z,20.47
2022-08-22T23:14:09.721Z,20.38
2022-08-22T23:16:39.686Z,20.32
2022-08-22T23:19:08.513Z,20.38
2022-08-22T23:21:34.340Z,20.33
2022-08-22T23:24:00.289Z,20.33
2022-08-22T23:26:27.442Z,20.36
2022-08-22T23:28:55.029Z,20.35
2022-08-22T23:31:32.044Z,20.48
2022-08-22T23:34:10.122Z,20.39
2022-08-22T23:36:36.806Z,20.39
2022-08-22T23:39:04.684Z,20.47
2022-08-22T23:41:30.769Z,20.53
2022-08-22T23:43:56.649Z,20.58
2022-08-22T23:46:25.475Z,20.67
2022-08-22T23:48:52.053Z,20.41
2022-08-22T23:51:23.141Z,20.37
2022-08-22T23:53:50.154Z,20.52
2022-08-22T23:56:24.643Z,20.47
2022-08-22T23:58:50.700Z,20.46
